Buoy 13519

sailwx.info

Track history (hours):
 
Tides and Currents Weather Stations Pressure Air Temp Water Temp Dewpoint Dewpoint Depression Visibility Wind Speed Wind Dir Waves Ship Positions

Drifting buoy 13519

Last reported at 2015-Jul-03 13:00 UTC. Time now 2015-Jul-03 15:43 UTC.
Position N 18°38' W 036°27'.

Barometer 1019.9 mb
Water temperature 24.4 ° C

Date/timePositionNaut miles runAvg speedWind from/ knotsBaromVisibWave heightAir tempDewpointWater temp
2015-Jul-03 13:00N 18°38' W 036°27'1 0.3 1019.9 24.4
2015-Jul-03 09:00N 18°38' W 036°27'0 0.2 1019.2 24.4
2015-Jul-03 08:00N 18°38' W 036°26'0 0.1 1018.7 24.4
2015-Jul-03 05:00N 18°38' W 036°26'0 0.1 1019.2 24.4
2015-Jul-03 00:00N 18°38' W 036°27'2 1.7 1020.1 24.4
2015-Jul-02 23:00N 18°37' W 036°25'2 2.2 1019.5 24.4
2015-Jul-02 22:00N 18°38' W 036°27'2 1.0 1019.0 24.4
2015-Jul-02 20:00N 18°36' W 036°26'2 0.3 1018.2 24.4
2015-Jul-02 12:00N 18°36' W 036°23'0 0.5 1020.1 24.4
2015-Jul-02 11:00N 18°36' W 036°23'0 0.0 1020.0 24.4
2015-Jul-02 05:00N 18°36' W 036°23'1 0.1 1018.6 24.4
2015-Jul-01 15:00N 18°37' W 036°22'1 0.2 1019.4 24.5
2015-Jul-01 08:00N 18°36' W 036°22'0 0.0 1018.7 24.3
2015-Jul-01 07:00N 18°36' W 036°22'2 0.3 1018.3 24.3
2015-Jun-30 23:00N 18°35' W 036°20'1 0.3 1019.5 24.4
2015-Jun-30 20:00N 18°35' W 036°19'1 0.3 1018.0 24.4
2015-Jun-30 16:00N 18°35' W 036°18'2 0.4 1018.5 24.5
2015-Jun-30 11:00N 18°35' W 036°15'0 0.0 1020.2 24.4
2015-Jun-30 10:00N 18°35' W 036°15'0 0.1 1019.7 24.4
2015-Jun-30 08:00N 18°35' W 036°16'1 0.2 1019.0 24.3
2015-Jun-30 04:00N 18°34' W 036°15'4 0.4 1019.2 24.4
2015-Jun-29 20:00N 18°33' W 036°12'0 0.0 1018.8 24.5
2015-Jun-29 19:00N 18°33' W 036°12'1 0.2 1018.9 24.5
2015-Jun-29 13:00N 18°32' W 036°12'0 0.0 1020.8 24.4
2015-Jun-29 12:00N 18°32' W 036°12'2 0.4 1021.0 24.4
2015-Jun-29 06:00N 18°31' W 036°10'1 0.6 1019.5 24.3
2015-Jun-29 04:00N 18°31' W 036°08'1 1.0 1020.0 24.3
2015-Jun-29 03:00N 18°31' W 036°09'0 0.1 1020.6 24.3
2015-Jun-28 23:00N 18°31' W 036°09'1 0.2 1020.9 24.4
2015-Jun-28 18:00N 18°31' W 036°08'2 0.2 1019.0 24.5
2015-Jun-28 10:00N 18°29' W 036°07'0 0.0 1020.3 24.3
2015-Jun-28 07:00N 18°29' W 036°07'1 0.6 1019.4 24.3
2015-Jun-28 06:00N 18°29' W 036°07'0 0.0 1019.3 24.3
2015-Jun-28 05:00N 18°29' W 036°07'1 1.3 1019.6 24.3
2015-Jun-28 04:00N 18°28' W 036°06'0 0.1 1020.1 24.3
2015-Jun-27 23:00N 18°28' W 036°06'3 0.3 1020.6 24.3
2015-Jun-27 12:00N 18°26' W 036°03'0 0.0 1021.5 24.3
2015-Jun-27 11:00N 18°26' W 036°03'2 0.2 1021.5 24.3
2015-Jun-26 20:00N 18°24' W 036°01'2 0.4 1021.6 24.3
2015-Jun-26 16:00N 18°23' W 036°00'3 0.4 1022.6 24.3
2015-Jun-26 09:00N 18°22' W 035°58'2 0.9 1023.3 24.2
2015-Jun-26 07:00N 18°22' W 035°59'0 0.0 1022.6 24.2
2015-Jun-26 06:00N 18°22' W 035°59'2 0.8 1022.4 24.2
2015-Jun-26 04:00N 18°21' W 035°59'1 0.3 1022.7 24.2
2015-Jun-26 00:00N 18°21' W 035°58'1 1.3 1023.9 24.2
2015-Jun-25 23:00N 18°20' W 035°57'1 1.1 1023.6 24.2
2015-Jun-25 22:00N 18°21' W 035°58'2 0.6 1023.1 24.3
2015-Jun-25 19:00N 18°20' W 035°57'1 1.5 1022.0 24.3
2015-Jun-25 18:00N 18°18' W 035°57'2 1.0 1022.0 24.3
2015-Jun-25 16:00N 18°17' W 035°55'0 0.1 1022.2 24.3
2015-Jun-25 12:00N 18°18' W 035°55'2 2.3 1022.8 24.2
2015-Jun-25 11:00N 18°17' W 035°53'0 0.1 1022.8 24.2
2015-Jun-25 07:00N 18°17' W 035°53'2 0.2 1021.7 24.2
2015-Jun-25 00:00N 18°16' W 035°51'0 0.0 1022.8 24.2
2015-Jun-24 23:00N 18°16' W 035°51'1 0.2 1022.7 24.2
2015-Jun-24 20:00N 18°15' W 035°51'0 0.3 1021.5 24.3
2015-Jun-24 19:00N 18°15' W 035°51'2 2.0 1021.3 24.3
2015-Jun-24 18:00N 18°14' W 035°50'0 0.0 1021.1 24.4
2015-Jun-24 16:00N 18°14' W 035°50'1 0.2 1021.2 24.3
2015-Jun-24 13:00N 18°14' W 035°49'2 2.1 1022.2 24.2
2015-Jun-24 12:00N 18°14' W 035°51'3 0.8 1022.4 24.2
2015-Jun-24 08:00N 18°12' W 035°48'0 0.0 1021.6 24.1
2015-Jun-24 07:00N 18°12' W 035°48'1 0.3 1021.4 24.1
2015-Jun-24 05:00N 18°12' W 035°49'1 0.2 1021.0 24.1
2015-Jun-24 00:00N 18°12' W 035°48'0 0.2 1022.6 24.1
2015-Jun-23 23:00N 18°12' W 035°48'2 1.7 1022.4 24.1
2015-Jun-23 22:00N 18°12' W 035°46'1 0.2 1022.0 24.1
2015-Jun-23 19:00N 18°11' W 035°46'   1020.2 24.2
Track history (hours):
 
Tides and Currents Weather Stations Pressure Air Temp Water Temp Dewpoint Dewpoint Depression Visibility Wind Speed Wind Dir Waves Ship Positions

Drifting buoy 13519

Last reported at 2015-Jul-03 13:00 UTC. Time now 2015-Jul-03 15:43 UTC.
Position N 18°38' W 036°27'.

Barometer 1019.9 mb
Water temperature 24.4 ° C

Date/timePositionNaut miles runAvg speedWind from/ knotsBaromVisibWave heightAir tempDewpointWater temp
2015-Jul-03 13:00N 18°38' W 036°27'1 0.3 1019.9 24.4
2015-Jul-03 09:00N 18°38' W 036°27'0 0.2 1019.2 24.4
2015-Jul-03 08:00N 18°38' W 036°26'0 0.1 1018.7 24.4
2015-Jul-03 05:00N 18°38' W 036°26'0 0.1 1019.2 24.4
2015-Jul-03 00:00N 18°38' W 036°27'2 1.7 1020.1 24.4
2015-Jul-02 23:00N 18°37' W 036°25'2 2.2 1019.5 24.4
2015-Jul-02 22:00N 18°38' W 036°27'2 1.0 1019.0 24.4
2015-Jul-02 20:00N 18°36' W 036°26'2 0.3 1018.2 24.4
2015-Jul-02 12:00N 18°36' W 036°23'0 0.5 1020.1 24.4
2015-Jul-02 11:00N 18°36' W 036°23'0 0.0 1020.0 24.4
2015-Jul-02 05:00N 18°36' W 036°23'1 0.1 1018.6 24.4
2015-Jul-01 15:00N 18°37' W 036°22'1 0.2 1019.4 24.5
2015-Jul-01 08:00N 18°36' W 036°22'0 0.0 1018.7 24.3
2015-Jul-01 07:00N 18°36' W 036°22'2 0.3 1018.3 24.3
2015-Jun-30 23:00N 18°35' W 036°20'1 0.3 1019.5 24.4
2015-Jun-30 20:00N 18°35' W 036°19'1 0.3 1018.0 24.4
2015-Jun-30 16:00N 18°35' W 036°18'2 0.4 1018.5 24.5
2015-Jun-30 11:00N 18°35' W 036°15'0 0.0 1020.2 24.4
2015-Jun-30 10:00N 18°35' W 036°15'0 0.1 1019.7 24.4
2015-Jun-30 08:00N 18°35' W 036°16'1 0.2 1019.0 24.3
2015-Jun-30 04:00N 18°34' W 036°15'4 0.4 1019.2 24.4
2015-Jun-29 20:00N 18°33' W 036°12'0 0.0 1018.8 24.5
2015-Jun-29 19:00N 18°33' W 036°12'1 0.2 1018.9 24.5
2015-Jun-29 13:00N 18°32' W 036°12'0 0.0 1020.8 24.4
2015-Jun-29 12:00N 18°32' W 036°12'2 0.4 1021.0 24.4
2015-Jun-29 06:00N 18°31' W 036°10'1 0.6 1019.5 24.3
2015-Jun-29 04:00N 18°31' W 036°08'1 1.0 1020.0 24.3
2015-Jun-29 03:00N 18°31' W 036°09'0 0.1 1020.6 24.3
2015-Jun-28 23:00N 18°31' W 036°09'1 0.2 1020.9 24.4
2015-Jun-28 18:00N 18°31' W 036°08'2 0.2 1019.0 24.5
2015-Jun-28 10:00N 18°29' W 036°07'0 0.0 1020.3 24.3
2015-Jun-28 07:00N 18°29' W 036°07'1 0.6 1019.4 24.3
2015-Jun-28 06:00N 18°29' W 036°07'0 0.0 1019.3 24.3
2015-Jun-28 05:00N 18°29' W 036°07'1 1.3 1019.6 24.3
2015-Jun-28 04:00N 18°28' W 036°06'0 0.1 1020.1 24.3
2015-Jun-27 23:00N 18°28' W 036°06'3 0.3 1020.6 24.3
2015-Jun-27 12:00N 18°26' W 036°03'0 0.0 1021.5 24.3
2015-Jun-27 11:00N 18°26' W 036°03'2 0.2 1021.5 24.3
2015-Jun-26 20:00N 18°24' W 036°01'2 0.4 1021.6 24.3
2015-Jun-26 16:00N 18°23' W 036°00'3 0.4 1022.6 24.3
2015-Jun-26 09:00N 18°22' W 035°58'2 0.9 1023.3 24.2
2015-Jun-26 07:00N 18°22' W 035°59'0 0.0 1022.6 24.2
2015-Jun-26 06:00N 18°22' W 035°59'2 0.8 1022.4 24.2
2015-Jun-26 04:00N 18°21' W 035°59'1 0.3 1022.7 24.2
2015-Jun-26 00:00N 18°21' W 035°58'1 1.3 1023.9 24.2
2015-Jun-25 23:00N 18°20' W 035°57'1 1.1 1023.6 24.2
2015-Jun-25 22:00N 18°21' W 035°58'2 0.6 1023.1 24.3
2015-Jun-25 19:00N 18°20' W 035°57'1 1.5 1022.0 24.3
2015-Jun-25 18:00N 18°18' W 035°57'2 1.0 1022.0 24.3
2015-Jun-25 16:00N 18°17' W 035°55'0 0.1 1022.2 24.3
2015-Jun-25 12:00N 18°18' W 035°55'2 2.3 1022.8 24.2
2015-Jun-25 11:00N 18°17' W 035°53'0 0.1 1022.8 24.2
2015-Jun-25 07:00N 18°17' W 035°53'2 0.2 1021.7 24.2
2015-Jun-25 00:00N 18°16' W 035°51'0 0.0 1022.8 24.2
2015-Jun-24 23:00N 18°16' W 035°51'1 0.2 1022.7 24.2
2015-Jun-24 20:00N 18°15' W 035°51'0 0.3 1021.5 24.3
2015-Jun-24 19:00N 18°15' W 035°51'2 2.0 1021.3 24.3
2015-Jun-24 18:00N 18°14' W 035°50'0 0.0 1021.1 24.4
2015-Jun-24 16:00N 18°14' W 035°50'1 0.2 1021.2 24.3
2015-Jun-24 13:00N 18°14' W 035°49'2 2.1 1022.2 24.2
2015-Jun-24 12:00N 18°14' W 035°51'3 0.8 1022.4 24.2
2015-Jun-24 08:00N 18°12' W 035°48'0 0.0 1021.6 24.1
2015-Jun-24 07:00N 18°12' W 035°48'1 0.3 1021.4 24.1
2015-Jun-24 05:00N 18°12' W 035°49'1 0.2 1021.0 24.1
2015-Jun-24 00:00N 18°12' W 035°48'0 0.2 1022.6 24.1
2015-Jun-23 23:00N 18°12' W 035°48'2 1.7 1022.4 24.1
2015-Jun-23 22:00N 18°12' W 035°46'1 0.2 1022.0 24.1
2015-Jun-23 19:00N 18°11' W 035°46'   1020.2 24.2

Dump ship's entire track history